createdAt,value
2017-01-02T00:00:15.609Z,51.3
2017-01-02T00:01:15.631Z,51.39
2017-01-02T00:02:15.633Z,51.42
2017-01-02T00:03:15.248Z,51.89
2017-01-02T00:04:15.259Z,51.51
2017-01-02T00:05:15.266Z,51.14
2017-01-02T00:06:15.677Z,50.57
2017-01-02T00:07:15.292Z,49.9
2017-01-02T00:08:15.701Z,49.15
2017-01-02T00:09:15.313Z,48.86
2017-01-02T00:10:15.722Z,49.15
2017-01-02T00:11:15.335Z,48.68
2017-01-02T00:12:15.751Z,48.77
2017-01-02T00:13:15.757Z,48.77
2017-01-02T00:14:15.768Z,48.86
2017-01-02T00:15:15.383Z,48.96
2017-01-02T00:16:15.794Z,48.86
2017-01-02T00:17:15.827Z,49.05
2017-01-02T00:18:15.818Z,49.05
2017-01-02T00:19:15.478Z,49.15
2017-01-02T00:20:15.440Z,48.86
2017-01-02T00:21:15.451Z,48.86
2017-01-02T00:22:15.868Z,48.68
2017-01-02T00:23:15.875Z,49.33
2017-01-02T00:24:15.896Z,49.15
2017-01-02T00:25:15.899Z,49.15
2017-01-02T00:26:15.509Z,49.62
2017-01-02T00:27:15.916Z,50
2017-01-02T00:28:15.931Z,49.71
2017-01-02T00:29:15.593Z,50.26
2017-01-02T00:30:15.555Z,50.54
2017-01-02T00:31:15.571Z,50.26
2017-01-02T00:32:15.982Z,50.38
2017-01-02T00:33:15.993Z,50.28
2017-01-02T00:34:15.606Z,50.47
2017-01-02T00:35:15.615Z,50.54
2017-01-02T00:36:15.627Z,50.63
2017-01-02T00:37:16.038Z,51.68
2017-01-02T00:38:16.050Z,51.11
2017-01-02T00:39:16.064Z,51.39
2017-01-02T00:40:15.673Z,51.11
2017-01-02T00:41:16.087Z,51.68
2017-01-02T00:42:16.096Z,51.2
2017-01-02T00:43:16.104Z,51.49
2017-01-02T00:44:15.720Z,51.3
2017-01-02T00:45:15.747Z,51.58
2017-01-02T00:46:16.139Z,51.3
2017-01-02T00:47:16.151Z,51.39
2017-01-02T00:48:15.763Z,52.25
2017-01-02T00:49:15.778Z,52.25
2017-01-02T00:50:15.790Z,52.06
2017-01-02T00:51:15.798Z,51.87
2017-01-02T00:52:16.211Z,51.87
2017-01-02T00:53:15.824Z,51.87
2017-01-02T00:54:15.832Z,52.06
2017-01-02T00:55:15.843Z,51.77
2017-01-02T00:56:15.857Z,51.3
2017-01-02T00:57:16.264Z,51.3
2017-01-02T00:58:16.275Z,51.3
2017-01-02T00:59:15.896Z,51.3
2017-01-02T01:00:15.903Z,51.11
2017-01-02T01:01:16.311Z,51.01
2017-01-02T01:02:15.922Z,51.58
2017-01-02T01:03:15.935Z,52.15
2017-01-02T01:04:16.340Z,51.96
2017-01-02T01:05:15.955Z,51.87
2017-01-02T01:06:15.966Z,52.44
2017-01-02T01:07:15.977Z,52.44
2017-01-02T01:08:15.987Z,52.88
2017-01-02T01:09:16.000Z,53.19
2017-01-02T01:10:16.410Z,52.91
2017-01-02T01:11:16.422Z,52.53
2017-01-02T01:12:16.432Z,53.19
2017-01-02T01:13:16.050Z,53
2017-01-02T01:14:16.454Z,52.91
2017-01-02T01:15:16.064Z,52.81
2017-01-02T01:16:16.076Z,53
2017-01-02T01:17:16.119Z,52.62
2017-01-02T01:18:16.097Z,52.81
2017-01-02T01:19:16.107Z,53.36
2017-01-02T01:20:16.524Z,53.36
2017-01-02T01:21:16.533Z,53.36
2017-01-02T01:22:16.140Z,54.02
2017-01-02T01:23:16.152Z,53.74
2017-01-02T01:24:16.161Z,54.02
2017-01-02T01:25:16.574Z,53.36
2017-01-02T01:26:16.583Z,53.45
2017-01-02T01:27:16.602Z,53.55
2017-01-02T01:28:16.607Z,53.55
2017-01-02T01:29:16.244Z,53.45
2017-01-02T01:30:16.627Z,53.45
2017-01-02T01:31:16.245Z,53.92
2017-01-02T01:32:16.252Z,53.92
2017-01-02T01:33:16.661Z,53.83
2017-01-02T01:34:16.668Z,53.45
2017-01-02T01:35:16.307Z,53.36
2017-01-02T01:36:16.308Z,53.55
2017-01-02T01:37:16.303Z,53.92
2017-01-02T01:38:16.314Z,54.11
2017-01-02T01:39:16.727Z,53.83
2017-01-02T01:40:16.335Z,53.83
2017-01-02T01:41:16.345Z,54.11
2017-01-02T01:42:16.762Z,54.11
2017-01-02T01:43:16.772Z,53.92
2017-01-02T01:44:16.778Z,53.64
2017-01-02T01:45:16.387Z,53.74
2017-01-02T01:46:16.798Z,54.21
2017-01-02T01:47:16.410Z,54.02
2017-01-02T01:48:16.419Z,54.21
2017-01-02T01:49:16.430Z,54.21
2017-01-02T01:50:16.842Z,53.83
2017-01-02T01:51:16.451Z,53.92
2017-01-02T01:52:16.462Z,54.02
2017-01-02T01:53:16.872Z,54.21
2017-01-02T01:54:16.884Z,54.21
2017-01-02T01:55:16.498Z,53.92
2017-01-02T01:56:16.906Z,53.92
2017-01-02T01:57:16.520Z,54.11
2017-01-02T01:58:16.924Z,54.49
2017-01-02T01:59:16.542Z,53.83
2017-01-02T02:00:16.548Z,53.92
2017-01-02T02:01:16.957Z,53.92
2017-01-02T02:02:16.571Z,53.92
2017-01-02T02:03:16.979Z,53.83
2017-01-02T02:04:16.988Z,53.45
2017-01-02T02:05:16.603Z,53.92
2017-01-02T02:06:17.011Z,53.45
2017-01-02T02:07:17.026Z,53.45
2017-01-02T02:08:17.031Z,53.36
2017-01-02T02:09:17.047Z,53.26
2017-01-02T02:10:16.657Z,53.45
2017-01-02T02:11:17.066Z,53.36
2017-01-02T02:12:17.079Z,53.26
2017-01-02T02:13:17.088Z,53.26
2017-01-02T02:14:17.097Z,53.92
2017-01-02T02:15:16.722Z,53.92
2017-01-02T02:16:17.118Z,54.02
2017-01-02T02:17:16.760Z,53.83
2017-01-02T02:18:16.759Z,53.26
2017-01-02T02:19:16.751Z,53.55
2017-01-02T02:20:17.163Z,53.07
2017-01-02T02:21:17.171Z,53
2017-01-02T02:22:16.782Z,53.55
2017-01-02T02:23:17.208Z,53.64
2017-01-02T02:24:16.812Z,52.98
2017-01-02T02:25:17.223Z,53.55
2017-01-02T02:26:16.828Z,52.79
2017-01-02T02:27:16.847Z,53.07
2017-01-02T02:28:16.850Z,52.98
2017-01-02T02:29:16.889Z,53.45
2017-01-02T02:30:16.874Z,53.83
2017-01-02T02:31:17.282Z,53.64
2017-01-02T02:32:16.891Z,53.45
2017-01-02T02:33:17.312Z,53.17
2017-01-02T02:34:17.315Z,53.83
2017-01-02T02:35:16.925Z,53.83
2017-01-02T02:36:17.334Z,54.23
2017-01-02T02:37:16.979Z,53.85
2017-01-02T02:38:16.970Z,53.76
2017-01-02T02:39:16.970Z,54.42
2017-01-02T02:40:17.379Z,54.61
2017-01-02T02:41:17.389Z,54.71
2017-01-02T02:42:17.412Z,54.9
2017-01-02T02:43:17.012Z,53.66
2017-01-02T02:44:17.424Z,53.57
2017-01-02T02:45:17.034Z,53.28
2017-01-02T02:46:17.248Z,52.53
2017-01-02T02:47:17.055Z,52.81
2017-01-02T02:48:17.464Z,52.34
2017-01-02T02:49:17.076Z,52.15
2017-01-02T02:50:17.488Z,53
2017-01-02T02:51:17.500Z,53.38
2017-01-02T02:52:17.126Z,53.47
2017-01-02T02:53:17.524Z,53.38
2017-01-02T02:54:17.534Z,53.59
2017-01-02T02:55:17.148Z,54.07
2017-01-02T02:56:17.158Z,54.07
2017-01-02T02:57:17.169Z,54.07
2017-01-02T02:58:17.179Z,53.59
2017-01-02T02:59:17.591Z,52.84
2017-01-02T03:00:17.633Z,52.27
2017-01-02T03:01:17.614Z,50.85
2017-01-02T03:02:17.626Z,50.09
2017-01-02T03:03:17.236Z,50.09
2017-01-02T03:04:17.250Z,50.07
2017-01-02T03:05:17.258Z,50.82
2017-01-02T03:06:17.273Z,50.35
2017-01-02T03:07:17.697Z,50.82
2017-01-02T03:08:17.309Z,51.3
2017-01-02T03:09:17.306Z,50.73
2017-01-02T03:10:17.316Z,50.54
2017-01-02T03:11:17.331Z,51.01
2017-01-02T03:12:17.338Z,51.3
2017-01-02T03:13:17.350Z,51.3
2017-01-02T03:14:17.364Z,51.39
2017-01-02T03:15:17.774Z,52.03
2017-01-02T03:16:17.385Z,51.87
2017-01-02T03:17:17.795Z,52.53
2017-01-02T03:18:17.807Z,52.41
2017-01-02T03:19:17.421Z,52.31
2017-01-02T03:20:17.830Z,52.22
2017-01-02T03:21:17.859Z,52.72
2017-01-02T03:22:17.854Z,52.88
2017-01-02T03:23:17.863Z,52.91
2017-01-02T03:24:17.876Z,52.81
2017-01-02T03:25:17.488Z,52.91
2017-01-02T03:26:17.900Z,53.19
2017-01-02T03:27:17.507Z,52.91
2017-01-02T03:28:17.919Z,52.44
2017-01-02T03:29:17.531Z,52.72
2017-01-02T03:30:17.543Z,51.87
2017-01-02T03:31:17.554Z,51.96
2017-01-02T03:32:17.962Z,51.96
2017-01-02T03:33:17.578Z,51.77
2017-01-02T03:34:17.587Z,52.72
2017-01-02T03:35:17.616Z,52.62
2017-01-02T03:36:18.008Z,52.34
2017-01-02T03:37:18.027Z,52.69
2017-01-02T03:38:18.031Z,53.55
2017-01-02T03:39:18.045Z,52.79
2017-01-02T03:40:18.053Z,53.36
2017-01-02T03:41:18.071Z,53.83
2017-01-02T03:42:18.083Z,53.92
2017-01-02T03:43:17.695Z,53.83
2017-01-02T03:44:17.698Z,53.64
2017-01-02T03:45:17.707Z,53.64
2017-01-02T03:46:18.120Z,53.64
2017-01-02T03:47:18.143Z,53.83
2017-01-02T03:48:18.141Z,53.92
2017-01-02T03:49:18.151Z,53.83
2017-01-02T03:50:18.162Z,53.92
2017-01-02T03:51:17.774Z,53.64
2017-01-02T03:52:18.182Z,53.83
2017-01-02T03:53:17.795Z,53.74
2017-01-02T03:54:17.805Z,53.74
2017-01-02T03:55:18.214Z,53.92
2017-01-02T03:56:18.225Z,54.21
2017-01-02T03:57:17.837Z,54.96
2017-01-02T03:58:18.249Z,54.96
2017-01-02T03:59:17.858Z,54.68
2017-01-02T04:00:18.282Z,54.49
2017-01-02T04:01:18.283Z,54.87
2017-01-02T04:02:17.892Z,54.49
2017-01-02T04:03:18.298Z,54.87
2017-01-02T04:04:17.914Z,54.68
2017-01-02T04:05:17.923Z,54.68
2017-01-02T04:06:18.331Z,55.15
2017-01-02T04:07:17.943Z,54.58
2017-01-02T04:08:17.955Z,54.77
2017-01-02T04:09:18.363Z,54.77
2017-01-02T04:10:18.371Z,54.58
2017-01-02T04:11:17.985Z,54.39
2017-01-02T04:12:18.415Z,54.21
2017-01-02T04:13:18.407Z,54.39
2017-01-02T04:14:18.016Z,54.68
2017-01-02T04:15:18.029Z,54.77
2017-01-02T04:16:18.437Z,55.53
2017-01-02T04:17:18.050Z,55.15
2017-01-02T04:18:18.458Z,54.87
2017-01-02T04:19:18.468Z,55.22
2017-01-02T04:20:18.078Z,55.63
2017-01-02T04:21:18.089Z,55.88
2017-01-02T04:22:18.100Z,56.2
2017-01-02T04:23:18.110Z,56.38
2017-01-02T04:24:18.551Z,56.57
2017-01-02T04:25:18.130Z,56.38
2017-01-02T04:26:18.143Z,55.63
2017-01-02T04:27:18.550Z,55.25
2017-01-02T04:28:18.163Z,55.15
2017-01-02T04:29:18.569Z,55.25
2017-01-02T04:30:18.580Z,55.63
2017-01-02T04:31:18.198Z,55.22
2017-01-02T04:32:18.602Z,56.26
2017-01-02T04:33:18.218Z,56.16
2017-01-02T04:34:18.623Z,56.35
2017-01-02T04:35:18.235Z,56.35
2017-01-02T04:36:18.243Z,56.45
2017-01-02T04:37:18.255Z,56.07
2017-01-02T04:38:18.664Z,55.88
2017-01-02T04:39:18.698Z,56.35
2017-01-02T04:40:18.684Z,56.07
2017-01-02T04:41:18.699Z,56.26
2017-01-02T04:42:18.704Z,56.45
2017-01-02T04:43:18.316Z,56.35
2017-01-02T04:44:18.326Z,56.26
2017-01-02T04:45:18.736Z,55.31
2017-01-02T04:46:18.362Z,55.5
2017-01-02T04:47:18.376Z,56.16
2017-01-02T04:48:18.766Z,55.79
2017-01-02T04:49:18.380Z,56.16
2017-01-02T04:50:18.789Z,55.98
2017-01-02T04:51:18.398Z,56.54
2017-01-02T04:52:18.404Z,56.01
2017-01-02T04:53:18.825Z,56.63
2017-01-02T04:54:18.826Z,56.82
2017-01-02T04:55:18.435Z,56.26
2017-01-02T04:56:18.450Z,55.22
2017-01-02T04:57:18.459Z,55.41
2017-01-02T04:58:18.466Z,56.45
2017-01-02T04:59:18.480Z,55.98
2017-01-02T05:00:18.492Z,55.98
2017-01-02T05:01:18.899Z,56.54
2017-01-02T05:02:18.908Z,56.82
2017-01-02T05:03:18.916Z,56.73
2017-01-02T05:04:18.928Z,56.35
2017-01-02T05:05:18.544Z,55.79
2017-01-02T05:06:18.944Z,56.16
2017-01-02T05:07:18.560Z,56.16
2017-01-02T05:08:18.570Z,56.26
2017-01-02T05:09:18.577Z,56.45
2017-01-02T05:10:18.984Z,56.35
2017-01-02T05:11:18.597Z,56.54
2017-01-02T05:12:18.607Z,57.01
2017-01-02T05:13:19.016Z,57.01
2017-01-02T05:14:18.628Z,56.92
2017-01-02T05:15:19.034Z,56.54
2017-01-02T05:16:18.647Z,56.35
2017-01-02T05:17:19.058Z,56.82
2017-01-02T05:18:18.665Z,56.63
2017-01-02T05:19:18.680Z,56.63
2017-01-02T05:20:19.089Z,56.54
2017-01-02T05:21:18.711Z,56.45
2017-01-02T05:22:19.107Z,56.45
2017-01-02T05:23:19.118Z,57.11
2017-01-02T05:24:18.731Z,56.82
2017-01-02T05:25:18.735Z,56.82
2017-01-02T05:26:18.747Z,56.82
2017-01-02T05:27:19.181Z,56.73
2017-01-02T05:28:19.173Z,56.16
2017-01-02T05:29:18.779Z,56.82
2017-01-02T05:30:18.790Z,56.35
2017-01-02T05:31:19.197Z,56.54
2017-01-02T05:32:19.223Z,56.63
2017-01-02T05:33:18.823Z,55.98
2017-01-02T05:34:18.826Z,56.35
2017-01-02T05:35:19.236Z,56.16
2017-01-02T05:36:19.246Z,56.73
2017-01-02T05:37:18.857Z,56.82
2017-01-02T05:38:19.261Z,57.49
2017-01-02T05:39:18.902Z,57.49
2017-01-02T05:40:19.285Z,56.82
2017-01-02T05:41:18.897Z,57.11
2017-01-02T05:42:18.907Z,56.82
2017-01-02T05:43:19.317Z,56.63
2017-01-02T05:44:18.929Z,57.11
2017-01-02T05:45:19.341Z,56.63
2017-01-02T05:46:18.945Z,56.92
2017-01-02T05:47:19.354Z,56.82
2017-01-02T05:48:19.365Z,56.54
2017-01-02T05:49:18.975Z,56.92
2017-01-02T05:50:18.996Z,56.26
2017-01-02T05:51:18.999Z,57.11
2017-01-02T05:52:19.007Z,57.01
2017-01-02T05:53:19.015Z,56.92
2017-01-02T05:54:19.026Z,56.73
2017-01-02T05:55:19.034Z,56.54
2017-01-02T05:56:19.447Z,56.26
2017-01-02T05:57:19.454Z,56.82
2017-01-02T05:58:19.463Z,57.2
2017-01-02T05:59:19.078Z,57.49
2017-01-02T06:00:19.498Z,56.45
2017-01-02T06:01:19.095Z,56.82
2017-01-02T06:02:19.106Z,57.39
2017-01-02T06:03:19.115Z,57.68
2017-01-02T06:04:19.523Z,57.39
2017-01-02T06:05:19.532Z,56.92
2017-01-02T06:06:19.145Z,56.82
2017-01-02T06:07:19.153Z,57.11
2017-01-02T06:08:19.166Z,56.82
2017-01-02T06:09:19.174Z,56.82
2017-01-02T06:10:19.600Z,56.92
2017-01-02T06:11:19.191Z,56.92
2017-01-02T06:12:19.600Z,57.01
2017-01-02T06:13:19.220Z,57.58
2017-01-02T06:14:19.630Z,57.58
2017-01-02T06:15:19.629Z,57.87
2017-01-02T06:16:19.243Z,57.77
2017-01-02T06:17:19.271Z,57.68
2017-01-02T06:18:19.280Z,57.39
2017-01-02T06:19:19.671Z,57.68
2017-01-02T06:20:19.676Z,57.2
2017-01-02T06:21:19.315Z,57.39
2017-01-02T06:22:19.698Z,56.63
2017-01-02T06:23:19.709Z,56.82
2017-01-02T06:24:19.733Z,56.92
2017-01-02T06:25:19.346Z,57.2
2017-01-02T06:26:19.338Z,57.68
2017-01-02T06:27:19.747Z,57.68
2017-01-02T06:28:19.759Z,57.39
2017-01-02T06:29:19.770Z,57.68
2017-01-02T06:30:19.778Z,57.87
2017-01-02T06:31:19.398Z,57.58
2017-01-02T06:32:19.411Z,57.87
2017-01-02T06:33:19.809Z,57.68
2017-01-02T06:34:19.815Z,58.34
2017-01-02T06:35:19.826Z,58.34
2017-01-02T06:36:19.836Z,58.34
2017-01-02T06:37:19.446Z,57.87
2017-01-02T06:38:19.462Z,57.49
2017-01-02T06:39:19.476Z,57.39
2017-01-02T06:40:19.479Z,56.73
2017-01-02T06:41:19.881Z,56.92
2017-01-02T06:42:19.495Z,56.63
2017-01-02T06:43:19.505Z,56.73
2017-01-02T06:44:19.917Z,56.63
2017-01-02T06:45:19.530Z,57.01
2017-01-02T06:46:19.932Z,56.82
2017-01-02T06:47:19.545Z,56.82
2017-01-02T06:48:19.554Z,56.73
2017-01-02T06:49:19.563Z,56.82
2017-01-02T06:50:19.972Z,57.49
2017-01-02T06:51:19.583Z,57.3
2017-01-02T06:52:19.993Z,56.92
2017-01-02T06:53:20.003Z,56.63
2017-01-02T06:54:20.013Z,57.01
2017-01-02T06:55:19.621Z,56.63
2017-01-02T06:56:20.063Z,56.82
2017-01-02T06:57:20.048Z,57.2
2017-01-02T06:58:20.049Z,57.68
2017-01-02T06:59:19.662Z,57.68
2017-01-02T07:00:20.070Z,58.53
2017-01-02T07:01:19.679Z,58.81
2017-01-02T07:02:20.097Z,59.38
2017-01-02T07:03:19.701Z,59.57
2017-01-02T07:04:19.707Z,59.85
2017-01-02T07:05:20.119Z,59.85
2017-01-02T07:06:19.730Z,60.8
2017-01-02T07:07:19.739Z,60.99
2017-01-02T07:08:19.746Z,61.46
2017-01-02T07:09:20.156Z,61.46
2017-01-02T07:10:20.168Z,61.46
2017-01-02T07:11:20.177Z,61.46
2017-01-02T07:12:20.187Z,62.02
2017-01-02T07:13:20.200Z,62.02
2017-01-02T07:14:20.206Z,62.12
2017-01-02T07:15:20.213Z,61.65
2017-01-02T07:16:19.830Z,61.55
2017-01-02T07:17:20.234Z,61.55
2017-01-02T07:18:19.845Z,62.02
2017-01-02T07:19:19.856Z,62.12
2017-01-02T07:20:20.270Z,61.83
2017-01-02T07:21:19.882Z,61.83
2017-01-02T07:22:19.887Z,61.3
2017-01-02T07:23:19.896Z,61.4
2017-01-02T07:24:20.326Z,61.58
2017-01-02T07:25:19.918Z,61.11
2017-01-02T07:26:20.325Z,61.21
2017-01-02T07:27:19.939Z,61.21
2017-01-02T07:28:20.349Z,60.93
2017-01-02T07:29:19.955Z,61.02
2017-01-02T07:30:19.968Z,61.11
2017-01-02T07:31:20.391Z,61.21
2017-01-02T07:32:19.986Z,61.02
2017-01-02T07:33:20.398Z,61.02
2017-01-02T07:34:20.009Z,60.93
2017-01-02T07:35:20.420Z,60.74
2017-01-02T07:36:20.427Z,60.83
2017-01-02T07:37:20.037Z,59.98
2017-01-02T07:38:20.048Z,60.17
2017-01-02T07:39:20.458Z,60.74
2017-01-02T07:40:20.072Z,60.93
2017-01-02T07:41:20.081Z,60.45
2017-01-02T07:42:20.089Z,60.74
2017-01-02T07:43:20.499Z,60.64
2017-01-02T07:44:20.110Z,60.83
2017-01-02T07:45:20.528Z,60.45
2017-01-02T07:46:20.130Z,60.36
2017-01-02T07:47:20.541Z,60.26
2017-01-02T07:48:20.150Z,59.69
2017-01-02T07:49:20.560Z,59.98
2017-01-02T07:50:20.175Z,59.88
2017-01-02T07:51:20.591Z,59.88
2017-01-02T07:52:20.193Z,59.88
2017-01-02T07:53:20.204Z,59.88
2017-01-02T07:54:20.215Z,59.98
2017-01-02T07:55:20.621Z,59.88
2017-01-02T07:56:20.236Z,60.17
2017-01-02T07:57:20.644Z,60.07
2017-01-02T07:58:20.654Z,60.17
2017-01-02T07:59:20.666Z,59.41
2017-01-02T08:00:20.277Z,59.6
2017-01-02T08:01:20.288Z,58.94
2017-01-02T08:02:20.700Z,59.03
2017-01-02T08:03:20.307Z,58.75
2017-01-02T08:04:20.321Z,58.84
2017-01-02T08:05:20.735Z,59.03
2017-01-02T08:06:20.740Z,58.94
2017-01-02T08:07:20.750Z,58.65
2017-01-02T08:08:20.757Z,58.75
2017-01-02T08:09:20.368Z,58.65
2017-01-02T08:10:20.386Z,59.12
2017-01-02T08:11:20.790Z,58.94
2017-01-02T08:12:20.799Z,58.75
2017-01-02T08:13:20.809Z,59.69
2017-01-02T08:14:20.821Z,59.69
2017-01-02T08:15:20.831Z,59.79
2017-01-02T08:16:20.441Z,60.07
2017-01-02T08:17:20.876Z,60.17
2017-01-02T08:18:20.863Z,60.26
2017-01-02T08:19:20.473Z,60.07
2017-01-02T08:20:20.486Z,60.07
2017-01-02T08:21:20.496Z,60.64
2017-01-02T08:22:20.908Z,61.11
2017-01-02T08:23:20.913Z,61.11
2017-01-02T08:24:20.563Z,61.11
2017-01-02T08:25:20.937Z,61.21
2017-01-02T08:26:20.554Z,60.74
2017-01-02T08:27:20.558Z,60.74
2017-01-02T08:28:20.969Z,61.02
2017-01-02T08:29:20.980Z,61.11
2017-01-02T08:30:20.986Z,61.02
2017-01-02T08:31:20.603Z,61.11
2017-01-02T08:32:21.011Z,61.4
2017-01-02T08:33:20.623Z,61.96
2017-01-02T08:34:21.033Z,61.3
2017-01-02T08:35:21.043Z,61.11
2017-01-02T08:36:20.654Z,60.93
2017-01-02T08:37:21.063Z,60.45
2017-01-02T08:38:20.679Z,60.36
2017-01-02T08:39:20.686Z,60.45
2017-01-02T08:40:21.096Z,60.45
2017-01-02T08:41:20.706Z,59.88
2017-01-02T08:42:20.716Z,60.45
2017-01-02T08:43:20.730Z,60.83
2017-01-02T08:44:21.139Z,61.58
2017-01-02T08:45:21.149Z,61.3
2017-01-02T08:46:20.762Z,61.49
2017-01-02T08:47:21.169Z,62.25
2017-01-02T08:48:21.185Z,62.06
2017-01-02T08:49:21.203Z,61.68
2017-01-02T08:50:20.805Z,61.58
2017-01-02T08:51:21.213Z,61.49
2017-01-02T08:52:20.824Z,61.11
2017-01-02T08:53:21.232Z,60.74
2017-01-02T08:54:21.249Z,61.49
2017-01-02T08:55:21.256Z,61.77
2017-01-02T08:56:20.868Z,61.11
2017-01-02T08:57:20.878Z,61.58
2017-01-02T08:58:20.889Z,61.49
2017-01-02T08:59:21.298Z,61.87
2017-01-02T09:00:21.311Z,62.15
2017-01-02T09:01:21.320Z,62.06
2017-01-02T09:02:20.937Z,61.96
2017-01-02T09:03:21.351Z,62.63
2017-01-02T09:04:21.353Z,63.76
2017-01-02T09:05:21.365Z,63.39
2017-01-02T09:06:21.390Z,63.48
2017-01-02T09:07:21.386Z,62.63
2017-01-02T09:08:20.995Z,62.82
2017-01-02T09:09:21.007Z,63.2
2017-01-02T09:10:21.427Z,63.1
2017-01-02T09:11:21.432Z,63.48
2017-01-02T09:12:21.039Z,63.29
2017-01-02T09:13:21.057Z,63.29
2017-01-02T09:14:21.459Z,63.48
2017-01-02T09:15:21.072Z,63.95
2017-01-02T09:16:21.479Z,63.57
2017-01-02T09:17:21.091Z,63.39
2017-01-02T09:18:21.502Z,63.57
2017-01-02T09:19:21.112Z,63.39
2017-01-02T09:20:21.527Z,63.48
2017-01-02T09:21:21.531Z,63.57
2017-01-02T09:22:21.145Z,63.29
2017-01-02T09:23:21.160Z,63.1
2017-01-02T09:24:21.167Z,63.57
2017-01-02T09:25:21.579Z,64.04
2017-01-02T09:26:21.189Z,64.14
2017-01-02T09:27:21.200Z,64.14
2017-01-02T09:28:21.213Z,64.23
2017-01-02T09:29:21.221Z,63.85
2017-01-02T09:30:21.231Z,63.32
2017-01-02T09:31:21.244Z,63.79
2017-01-02T09:32:21.655Z,64.23
2017-01-02T09:33:21.264Z,64.83
2017-01-02T09:34:21.676Z,64.17
2017-01-02T09:35:21.290Z,64.26
2017-01-02T09:36:21.697Z,64.07
2017-01-02T09:37:21.307Z,64.17
2017-01-02T09:38:21.721Z,64.64
2017-01-02T09:39:21.733Z,64.83
2017-01-02T09:40:21.343Z,64.55
2017-01-02T09:41:21.879Z,64.74
2017-01-02T09:42:21.764Z,64.45
2017-01-02T09:43:21.772Z,64.64
2017-01-02T09:44:21.387Z,64.64
2017-01-02T09:45:21.802Z,64.83
2017-01-02T09:46:21.407Z,64.64
2017-01-02T09:47:21.816Z,64.64
2017-01-02T09:48:21.427Z,64.45
2017-01-02T09:49:21.840Z,64.74
2017-01-02T09:50:21.452Z,64.64
2017-01-02T09:51:21.860Z,64.74
2017-01-02T09:52:21.475Z,65.21
2017-01-02T09:53:21.487Z,65.31
2017-01-02T09:54:21.497Z,65.02
2017-01-02T09:55:21.523Z,64.93
2017-01-02T09:56:21.662Z,64.93
2017-01-02T09:57:21.553Z,64.93
2017-01-02T09:58:21.542Z,64.83
2017-01-02T09:59:22.054Z,64.3
2017-01-02T10:00:21.564Z,64.01
2017-01-02T10:01:21.577Z,64.3
2017-01-02T10:02:21.985Z,64.39
2017-01-02T10:03:22.006Z,64.2
2017-01-02T10:04:21.620Z,63.92
2017-01-02T10:05:22.018Z,63.73
2017-01-02T10:06:22.061Z,64.01
2017-01-02T10:07:21.644Z,63.73
2017-01-02T10:08:21.657Z,63.82
2017-01-02T10:09:22.070Z,64.11
2017-01-02T10:10:21.688Z,63.73
2017-01-02T10:11:21.701Z,64.39
2017-01-02T10:12:21.702Z,64.2
2017-01-02T10:13:21.714Z,64.58
2017-01-02T10:14:22.142Z,64.68
2017-01-02T10:15:22.139Z,64.87
2017-01-02T10:16:22.147Z,64.49
2017-01-02T10:17:21.776Z,64.68
2017-01-02T10:18:21.773Z,64.87
2017-01-02T10:19:21.783Z,64.68
2017-01-02T10:20:21.797Z,64.87
2017-01-02T10:21:21.807Z,64.2
2017-01-02T10:22:21.819Z,64.39
2017-01-02T10:23:22.228Z,64.01
2017-01-02T10:24:22.261Z,64.3
2017-01-02T10:25:21.874Z,64.11
2017-01-02T10:26:21.866Z,64.49
2017-01-02T10:27:22.278Z,64.39
2017-01-02T10:28:21.897Z,64.87
2017-01-02T10:29:21.903Z,64.2
2017-01-02T10:30:21.913Z,64.77
2017-01-02T10:31:22.328Z,64.77
2017-01-02T10:32:22.336Z,64.77
2017-01-02T10:33:22.349Z,64.77
2017-01-02T10:34:21.963Z,64.77
2017-01-02T10:35:21.974Z,64.77
2017-01-02T10:36:22.385Z,64.87
2017-01-02T10:37:22.396Z,64.87
2017-01-02T10:38:22.409Z,64.14
2017-01-02T10:39:22.024Z,64.14
2017-01-02T10:40:22.034Z,64.04
2017-01-02T10:41:22.045Z,64.71
2017-01-02T10:42:22.057Z,64.52
2017-01-02T10:43:22.468Z,64.71
2017-01-02T10:44:22.479Z,64.42
2017-01-02T10:45:22.094Z,64.33
2017-01-02T10:46:22.106Z,64.14
2017-01-02T10:47:22.652Z,64.14
2017-01-02T10:48:22.528Z,64.33
2017-01-02T10:49:22.144Z,64.9
2017-01-02T10:50:22.154Z,64.33
2017-01-02T10:51:22.565Z,64.52
2017-01-02T10:52:22.181Z,64.42
2017-01-02T10:53:22.196Z,64.23
2017-01-02T10:54:22.602Z,64.42
2017-01-02T10:55:22.215Z,64.04
2017-01-02T10:56:22.622Z,64.42
2017-01-02T10:57:22.640Z,64.23
2017-01-02T10:58:22.649Z,64.33
2017-01-02T10:59:22.463Z,64.23
2017-01-02T11:00:22.681Z,64.33
2017-01-02T11:01:22.293Z,64.04
2017-01-02T11:02:22.697Z,64.61
2017-01-02T11:03:22.329Z,64.23
2017-01-02T11:04:22.775Z,63.85
2017-01-02T11:05:22.336Z,64.14
2017-01-02T11:06:22.350Z,64.04
2017-01-02T11:07:22.362Z,64.04
2017-01-02T11:08:22.773Z,63.76
2017-01-02T11:09:22.385Z,63.76
2017-01-02T11:10:22.798Z,64.14
2017-01-02T11:11:22.410Z,64.33
2017-01-02T11:12:22.820Z,64.23
2017-01-02T11:13:22.434Z,64.33
2017-01-02T11:14:22.847Z,64.52
2017-01-02T11:15:22.458Z,64.61
2017-01-02T11:16:22.472Z,64.33
2017-01-02T11:17:22.883Z,64.81
2017-01-02T11:18:22.497Z,64.71
2017-01-02T11:19:22.509Z,64.52
2017-01-02T11:20:22.524Z,64.71
2017-01-02T11:21:22.538Z,64.71
2017-01-02T11:22:22.945Z,64.42
2017-01-02T11:23:22.955Z,64.9
2017-01-02T11:24:22.570Z,64.71
2017-01-02T11:25:22.587Z,64.9
2017-01-02T11:26:22.595Z,64.61
2017-01-02T11:27:22.606Z,64.81
2017-01-02T11:28:23.019Z,64.42
2017-01-02T11:29:23.029Z,64.23
2017-01-02T11:30:23.044Z,64.71
2017-01-02T11:31:23.055Z,64.04
2017-01-02T11:32:22.675Z,64.42
2017-01-02T11:33:23.082Z,64.04
2017-01-02T11:34:22.695Z,63.95
2017-01-02T11:35:23.103Z,64.04
2017-01-02T11:36:22.720Z,64.04
2017-01-02T11:37:23.132Z,63.85
2017-01-02T11:38:22.743Z,64.04
2017-01-02T11:39:22.757Z,63.51
2017-01-02T11:40:23.170Z,63.6
2017-01-02T11:41:23.185Z,63.13
2017-01-02T11:42:23.191Z,63.23
2017-01-02T11:43:23.225Z,62.75
2017-01-02T11:44:23.220Z,63.51
2017-01-02T11:45:23.231Z,63.51
2017-01-02T11:46:23.245Z,62.94
2017-01-02T11:47:22.859Z,62.28
2017-01-02T11:48:23.269Z,62.28
2017-01-02T11:49:22.883Z,62.28
2017-01-02T11:50:22.897Z,62.37
2017-01-02T11:51:23.310Z,62.18
2017-01-02T11:52:22.927Z,61.8
2017-01-02T11:53:23.366Z,61.99
2017-01-02T11:54:23.361Z,60.98
2017-01-02T11:55:22.961Z,60.89
2017-01-02T11:56:22.983Z,61.05
2017-01-02T11:57:23.386Z,61.27
2017-01-02T11:58:22.996Z,61.08
2017-01-02T11:59:23.020Z,60.31
2017-01-02T12:00:23.026Z,60.13
2017-01-02T12:01:23.641Z,60.41
2017-01-02T12:02:23.454Z,60.31
2017-01-02T12:03:23.064Z,60.03
2017-01-02T12:04:23.081Z,59.84
2017-01-02T12:05:23.096Z,59.94
2017-01-02T12:06:23.505Z,59.56
2017-01-02T12:07:23.120Z,59.18
2017-01-02T12:08:23.552Z,59.18
2017-01-02T12:09:23.571Z,59.08
2017-01-02T12:10:23.159Z,59.18
2017-01-02T12:11:23.572Z,58.99
2017-01-02T12:12:23.581Z,59.37
2017-01-02T12:13:23.199Z,58.89
2017-01-02T12:14:23.639Z,58.7
2017-01-02T12:15:23.227Z,58.26
2017-01-02T12:16:23.241Z,58.51
2017-01-02T12:17:23.254Z,58.36
2017-01-02T12:18:23.667Z,57.98
2017-01-02T12:19:23.681Z,57.98
2017-01-02T12:20:23.694Z,57.98
2017-01-02T12:21:23.307Z,57.79
2017-01-02T12:22:23.320Z,57.88
2017-01-02T12:23:23.339Z,57.98
2017-01-02T12:24:23.348Z,58.14
2017-01-02T12:25:23.760Z,58.17
2017-01-02T12:26:23.777Z,58.17
2017-01-02T12:27:23.788Z,58.54
2017-01-02T12:28:23.803Z,58.83
2017-01-02T12:29:23.422Z,58.26
2017-01-02T12:30:23.433Z,58.54
2017-01-02T12:31:23.844Z,58.17
2017-01-02T12:32:23.859Z,58.17
2017-01-02T12:33:23.891Z,58.07
2017-01-02T12:34:23.936Z,57.79
2017-01-02T12:35:23.500Z,57.98
2017-01-02T12:36:23.515Z,57.79
2017-01-02T12:37:23.926Z,57.59
2017-01-02T12:38:23.942Z,56.84
2017-01-02T12:39:23.640Z,57.03
2017-01-02T12:40:23.971Z,56.84
2017-01-02T12:41:23.585Z,57.31
2017-01-02T12:42:23.599Z,57.12
2017-01-02T12:43:23.613Z,56.96
2017-01-02T12:44:23.627Z,57.21
2017-01-02T12:45:23.641Z,56.93
2017-01-02T12:46:23.655Z,56.87
2017-01-02T12:47:23.669Z,56.96
2017-01-02T12:48:24.081Z,57.12
2017-01-02T12:49:24.096Z,56.77
2017-01-02T12:50:23.710Z,57.15
2017-01-02T12:51:23.724Z,56.87
2017-01-02T12:52:24.138Z,56.49
2017-01-02T12:53:24.152Z,56.58
2017-01-02T12:54:24.165Z,56.49